createdAt,value
2017-06-28T00:01:56.206Z,50.90
2017-06-28T00:04:24.474Z,51.40
2017-06-28T00:06:51.941Z,50.90
2017-06-28T00:09:20.182Z,51.10
2017-06-28T00:11:47.650Z,51.10
2017-06-28T00:14:15.204Z,51.30
2017-06-28T00:16:42.755Z,51.30
2017-06-28T00:19:10.214Z,51.20
2017-06-28T00:21:37.675Z,51.20
2017-06-28T00:24:05.248Z,51.20
2017-06-28T00:26:33.468Z,51.50
2017-06-28T00:29:00.979Z,51.40
2017-06-28T00:31:28.534Z,51.60
2017-06-28T00:33:56.094Z,51.80
2017-06-28T00:36:23.653Z,51.90
2017-06-28T00:38:51.152Z,51.80
2017-06-28T00:41:18.660Z,51.80
2017-06-28T00:43:46.212Z,51.60
2017-06-28T00:46:13.690Z,51.50
2017-06-28T00:48:41.144Z,51.40
2017-06-28T00:51:08.657Z,51.50
2017-06-28T00:53:36.150Z,51.30
2017-06-28T00:56:03.705Z,51.30
2017-06-28T00:58:31.257Z,51.30
2017-06-28T01:00:58.712Z,51.40
2017-06-28T01:03:26.272Z,51.50
2017-06-28T01:05:53.727Z,51.70
2017-06-28T01:08:21.317Z,51.60
2017-06-28T01:10:49.564Z,51.50
2017-06-28T01:13:17.124Z,51.50
2017-06-28T01:15:44.647Z,51.40
2017-06-28T01:18:12.155Z,51.70
2017-06-28T01:20:39.710Z,51.40
2017-06-28T01:23:07.169Z,51.20
2017-06-28T01:25:34.721Z,51.00
2017-06-28T01:28:02.182Z,50.80
2017-06-28T01:30:29.727Z,51.10
2017-06-28T01:32:57.189Z,50.60
2017-06-28T01:35:24.653Z,50.90
2017-06-28T01:37:52.113Z,50.80
2017-06-28T01:40:19.585Z,51.00
2017-06-28T01:42:47.806Z,50.70
2017-06-28T01:45:15.289Z,50.60
2017-06-28T01:47:42.845Z,50.60
2017-06-28T01:50:10.312Z,50.60
2017-06-28T01:52:37.767Z,50.90
2017-06-28T01:55:05.277Z,50.70
2017-06-28T01:57:32.744Z,51.00
2017-06-28T02:00:00.217Z,50.90
2017-06-28T02:02:27.677Z,51.20
2017-06-28T02:04:55.146Z,51.20
2017-06-28T02:07:22.614Z,51.20
2017-06-28T02:09:50.057Z,51.20
2017-06-28T02:12:17.522Z,51.30
2017-06-28T02:14:44.968Z,51.40
2017-06-28T02:17:12.434Z,51.40
2017-06-28T02:19:39.908Z,51.40
2017-06-28T02:22:08.171Z,51.50
2017-06-28T02:24:35.713Z,51.50
2017-06-28T02:27:03.167Z,51.60
2017-06-28T02:29:30.630Z,51.50
2017-06-28T02:31:58.198Z,51.70
2017-06-28T02:34:25.750Z,51.50
2017-06-28T02:36:53.218Z,51.40
2017-06-28T02:39:21.449Z,52.10
2017-06-28T02:41:48.933Z,51.40
2017-06-28T02:44:16.384Z,51.50
2017-06-28T02:46:43.833Z,51.50
2017-06-28T02:49:11.301Z,51.50
2017-06-28T02:51:38.777Z,51.70
2017-06-28T02:54:06.317Z,51.60
2017-06-28T02:56:33.778Z,51.70
2017-06-28T02:59:01.233Z,51.60
2017-06-28T03:01:28.783Z,51.60
2017-06-28T03:03:56.344Z,51.70
2017-06-28T03:06:23.915Z,51.70
2017-06-28T03:08:51.367Z,51.80
2017-06-28T03:11:18.834Z,51.60
2017-06-28T03:13:47.106Z,52.10
2017-06-28T03:16:14.587Z,51.60
2017-06-28T03:18:42.798Z,51.70
2017-06-28T03:21:10.276Z,51.60
2017-06-28T03:23:37.829Z,51.60
2017-06-28T03:26:05.401Z,51.70
2017-06-28T03:28:32.962Z,51.60
2017-06-28T03:31:00.517Z,51.70
2017-06-28T03:33:28.072Z,51.80
2017-06-28T03:35:55.533Z,51.70
2017-06-28T03:38:23.087Z,51.90
2017-06-28T03:40:50.640Z,51.90
2017-06-28T03:43:18.107Z,51.90
2017-06-28T03:45:45.661Z,52.10
2017-06-28T03:48:13.121Z,52.10
2017-06-28T03:50:40.692Z,52.10
2017-06-28T03:53:08.231Z,52.10
2017-06-28T03:55:35.808Z,52.10
2017-06-28T03:58:03.269Z,52.10
2017-06-28T04:00:31.484Z,52.30
2017-06-28T04:02:58.994Z,52.20
2017-06-28T04:05:26.502Z,52.30
2017-06-28T04:07:54.001Z,52.40
2017-06-28T04:10:21.460Z,52.30
2017-06-28T04:12:48.946Z,52.50
2017-06-28T04:15:17.182Z,52.60
2017-06-28T04:17:44.749Z,52.60
2017-06-28T04:20:12.297Z,52.90
2017-06-28T04:22:39.865Z,53.00
2017-06-28T04:25:07.429Z,53.00
2017-06-28T04:27:34.987Z,53.20
2017-06-28T04:30:02.454Z,53.00
2017-06-28T04:32:30.716Z,53.30
2017-06-28T04:34:58.169Z,53.20
2017-06-28T04:37:25.723Z,53.60
2017-06-28T04:39:53.194Z,53.60
2017-06-28T04:42:20.746Z,53.70
2017-06-28T04:44:48.206Z,53.70
2017-06-28T04:47:15.664Z,53.60
2017-06-28T04:49:43.213Z,54.00
2017-06-28T04:52:10.868Z,54.00
2017-06-28T04:54:38.444Z,54.00
2017-06-28T04:57:05.906Z,54.10
2017-06-28T04:59:33.458Z,54.00
2017-06-28T05:02:01.690Z,53.50
2017-06-28T05:04:29.144Z,53.40
2017-06-28T05:06:56.646Z,53.60
2017-06-28T05:09:24.253Z,53.40
2017-06-28T05:11:51.709Z,53.30
2017-06-28T05:14:19.208Z,53.20
2017-06-28T05:16:46.672Z,53.10
2017-06-28T05:19:14.143Z,53.00
2017-06-28T05:21:42.382Z,52.50
2017-06-28T05:24:09.866Z,52.50
2017-06-28T05:26:37.365Z,52.60
2017-06-28T05:29:04.821Z,52.50
2017-06-28T05:31:32.286Z,52.20
2017-06-28T05:33:59.794Z,52.30
2017-06-28T05:36:28.036Z,52.10
2017-06-28T05:38:55.495Z,52.00
2017-06-28T05:41:22.965Z,52.20
2017-06-28T05:43:50.432Z,52.30
2017-06-28T05:46:17.884Z,52.40
2017-06-28T05:48:45.455Z,52.50
2017-06-28T05:51:12.921Z,52.30
2017-06-28T05:53:40.461Z,52.10
2017-06-28T05:56:07.916Z,51.60
2017-06-28T05:58:35.375Z,52.30
2017-06-28T06:01:02.933Z,52.20
2017-06-28T06:03:30.405Z,52.20
2017-06-28T06:05:58.666Z,52.60
2017-06-28T06:08:26.119Z,52.00
2017-06-28T06:10:53.681Z,51.90
2017-06-28T06:13:21.154Z,51.60
2017-06-28T06:15:49.392Z,52.00
2017-06-28T06:18:16.865Z,51.70
2017-06-28T06:20:45.100Z,51.60
2017-06-28T06:23:12.572Z,51.60
2017-06-28T06:25:40.035Z,51.80
2017-06-28T06:28:07.510Z,52.40
2017-06-28T06:30:34.973Z,51.80
2017-06-28T06:33:02.570Z,51.90
2017-06-28T06:35:30.046Z,52.30
2017-06-28T06:37:57.529Z,52.00
2017-06-28T06:40:24.986Z,51.80
2017-06-28T06:42:52.456Z,51.70
2017-06-28T06:45:20.014Z,51.70
2017-06-28T06:47:47.593Z,51.60
2017-06-28T06:50:15.839Z,51.80
2017-06-28T06:52:43.328Z,51.80
2017-06-28T06:55:11.554Z,51.70
2017-06-28T06:57:39.044Z,51.60
2017-06-28T07:00:06.496Z,51.90
2017-06-28T07:02:34.051Z,52.10
2017-06-28T07:05:01.513Z,52.10
2017-06-28T07:07:29.027Z,52.30
2017-06-28T07:09:56.511Z,52.30
2017-06-28T07:12:23.964Z,52.50
2017-06-28T07:14:51.488Z,52.30
2017-06-28T07:17:18.999Z,52.50
2017-06-28T07:19:46.559Z,52.40
2017-06-28T07:22:14.108Z,52.00
2017-06-28T07:24:41.562Z,52.40
2017-06-28T07:27:09.025Z,52.60
2017-06-28T07:29:36.485Z,52.60
2017-06-28T07:32:04.032Z,52.30
2017-06-28T07:34:31.586Z,52.20
2017-06-28T07:36:59.145Z,52.20
2017-06-28T07:39:26.592Z,52.00
2017-06-28T07:41:54.072Z,52.20
2017-06-28T07:44:21.636Z,52.10
2017-06-28T07:46:49.115Z,52.10
2017-06-28T07:49:17.345Z,52.50
2017-06-28T07:51:44.817Z,52.40
2017-06-28T07:54:13.090Z,53.00
2017-06-28T07:56:40.644Z,53.00
2017-06-28T07:59:08.206Z,52.80
2017-06-28T08:01:35.752Z,52.70
2017-06-28T08:04:03.224Z,52.60
2017-06-28T08:06:30.695Z,52.70
2017-06-28T08:08:58.949Z,52.20
2017-06-28T08:11:26.510Z,52.20
2017-06-28T08:13:54.071Z,52.40
2017-06-28T08:16:21.641Z,52.40
2017-06-28T08:18:49.875Z,52.00
2017-06-28T08:21:17.344Z,51.80
2017-06-28T08:23:44.813Z,52.00
2017-06-28T08:26:12.373Z,52.30
2017-06-28T08:28:39.837Z,52.10
2017-06-28T08:31:07.380Z,51.90
2017-06-28T08:33:34.953Z,52.20
2017-06-28T08:36:02.514Z,51.70
2017-06-28T08:38:30.124Z,51.90
2017-06-28T08:40:57.625Z,51.80
2017-06-28T08:43:25.185Z,51.70
2017-06-28T08:45:52.729Z,51.70
2017-06-28T08:48:20.179Z,51.60
2017-06-28T08:50:47.640Z,51.40
2017-06-28T08:53:15.127Z,51.70
2017-06-28T08:55:43.362Z,51.50
2017-06-28T08:58:10.846Z,51.40
2017-06-28T09:00:38.404Z,51.00
2017-06-28T09:03:05.966Z,51.80
2017-06-28T09:05:33.434Z,51.60
2017-06-28T09:08:01.707Z,50.80
2017-06-28T09:10:29.250Z,50.80
2017-06-28T09:12:56.807Z,50.90
2017-06-28T09:15:24.261Z,50.60
2017-06-28T09:17:51.836Z,50.20
2017-06-28T09:20:19.298Z,49.70
2017-06-28T09:22:47.559Z,49.70
2017-06-28T09:25:15.011Z,49.70
2017-06-28T09:27:42.482Z,49.60
2017-06-28T09:30:09.937Z,49.60
2017-06-28T09:32:37.442Z,49.50
2017-06-28T09:35:04.914Z,48.90
2017-06-28T09:37:32.405Z,49.80
2017-06-28T09:39:59.865Z,48.70
2017-06-28T09:42:28.130Z,49.20
2017-06-28T09:44:55.592Z,48.50
2017-06-28T09:47:23.072Z,48.00
2017-06-28T09:49:51.302Z,46.70
2017-06-28T09:52:18.753Z,46.60
2017-06-28T09:54:46.238Z,45.60
2017-06-28T09:57:13.792Z,45.40
2017-06-28T09:59:41.262Z,45.60
2017-06-28T10:02:09.494Z,45.20
2017-06-28T10:04:36.961Z,45.20
2017-06-28T10:07:04.414Z,45.20
2017-06-28T10:09:31.881Z,44.80
2017-06-28T10:11:59.351Z,45.50
2017-06-28T10:14:26.816Z,45.70
2017-06-28T10:16:55.082Z,46.10
2017-06-28T10:19:22.539Z,46.10
2017-06-28T10:21:50.011Z,46.30
2017-06-28T10:24:18.255Z,47.10
2017-06-28T10:26:45.718Z,47.00
2017-06-28T10:29:13.186Z,46.80
2017-06-28T10:31:40.653Z,46.60
2017-06-28T10:34:08.900Z,45.90
2017-06-28T10:36:36.371Z,45.90
2017-06-28T10:39:03.835Z,45.70
2017-06-28T10:41:31.298Z,46.30
2017-06-28T10:43:59.557Z,46.60
2017-06-28T10:46:27.118Z,46.50
2017-06-28T10:48:54.630Z,46.00
2017-06-28T10:51:22.128Z,46.30
2017-06-28T10:53:49.584Z,46.10
2017-06-28T10:56:17.159Z,46.50
2017-06-28T10:58:45.448Z,46.50
2017-06-28T11:01:12.916Z,46.40
2017-06-28T11:03:40.395Z,46.90
2017-06-28T11:06:07.851Z,47.10
2017-06-28T11:08:35.350Z,46.40
2017-06-28T11:11:02.911Z,46.20
2017-06-28T11:13:30.382Z,45.00
2017-06-28T11:15:58.643Z,44.80
2017-06-28T11:18:26.106Z,44.70
2017-06-28T11:20:54.364Z,46.10
2017-06-28T11:23:21.929Z,46.10
2017-06-28T11:25:49.395Z,47.00
2017-06-28T11:28:16.889Z,46.50
2017-06-28T11:30:44.345Z,46.20
2017-06-28T11:33:11.792Z,45.20
2017-06-28T11:35:39.303Z,45.20
2017-06-28T11:38:06.763Z,44.80
2017-06-28T11:40:34.225Z,45.80
2017-06-28T11:43:01.676Z,45.10
2017-06-28T11:45:29.142Z,45.10
2017-06-28T11:47:56.683Z,45.20
2017-06-28T11:50:24.159Z,44.40
2017-06-28T11:52:51.705Z,44.70
2017-06-28T11:55:19.275Z,45.40
2017-06-28T11:57:46.825Z,45.00
2017-06-28T12:00:14.299Z,45.00
2017-06-28T12:02:42.548Z,46.10
2017-06-28T12:05:10.118Z,46.10
2017-06-28T12:07:37.668Z,46.10
2017-06-28T12:10:05.134Z,46.40
2017-06-28T12:12:32.679Z,46.90
2017-06-28T12:15:00.149Z,46.30
2017-06-28T12:17:27.709Z,45.40
2017-06-28T12:19:55.267Z,45.90
2017-06-28T12:22:22.812Z,45.40
2017-06-28T12:24:50.268Z,45.40
2017-06-28T12:27:17.738Z,45.10
2017-06-28T12:29:45.303Z,45.00
2017-06-28T12:32:12.759Z,45.40
2017-06-28T12:34:40.225Z,45.00
2017-06-28T12:37:08.485Z,44.60
2017-06-28T12:39:36.043Z,44.50
2017-06-28T12:42:03.596Z,44.20
2017-06-28T12:44:31.151Z,43.70
2017-06-28T12:46:58.721Z,44.00
2017-06-28T12:49:26.314Z,44.30
2017-06-28T12:51:53.763Z,44.40
2017-06-28T12:54:21.228Z,44.10
2017-06-28T12:56:48.687Z,44.20
2017-06-28T12:59:16.148Z,43.60
2017-06-28T13:01:44.372Z,43.70
2017-06-28T13:04:11.847Z,44.30
2017-06-28T13:06:40.104Z,44.60
2017-06-28T13:09:07.572Z,44.50
2017-06-28T13:11:35.029Z,44.70
2017-06-28T13:14:03.287Z,44.80
2017-06-28T13:16:30.847Z,45.60
2017-06-28T13:18:58.321Z,45.10
2017-06-28T13:21:25.928Z,45.00
2017-06-28T13:23:53.467Z,45.00
2017-06-28T13:26:20.989Z,44.80
2017-06-28T13:28:48.464Z,45.30
2017-06-28T13:31:16.809Z,46.70
2017-06-28T13:33:44.273Z,46.70
2017-06-28T13:36:11.838Z,46.60
2017-06-28T13:38:39.385Z,47.00
2017-06-28T13:41:06.958Z,47.90
2017-06-28T13:43:34.519Z,48.80
2017-06-28T13:46:01.981Z,48.80
2017-06-28T13:48:29.432Z,48.60
2017-06-28T13:50:56.987Z,48.60
2017-06-28T13:53:24.523Z,49.50
2017-06-28T13:55:52.006Z,49.20
2017-06-28T13:58:19.567Z,50.40
2017-06-28T14:00:47.012Z,50.50
2017-06-28T14:03:14.578Z,51.50
2017-06-28T14:05:42.049Z,51.80
2017-06-28T14:08:10.299Z,53.90
2017-06-28T14:10:37.856Z,53.90
2017-06-28T14:13:05.300Z,55.10
2017-06-28T14:15:32.761Z,56.70
2017-06-28T14:18:00.337Z,57.90
2017-06-28T14:20:27.899Z,59.50
2017-06-28T14:22:55.367Z,59.70
2017-06-28T14:25:23.585Z,63.10
2017-06-28T14:27:51.098Z,62.20
2017-06-28T14:30:19.343Z,63.00
2017-06-28T14:32:46.796Z,63.10
2017-06-28T14:35:14.260Z,63.00
2017-06-28T14:37:41.726Z,64.50
2017-06-28T14:40:09.286Z,65.60
2017-06-28T14:42:36.845Z,65.30
2017-06-28T14:45:04.404Z,64.60
2017-06-28T14:47:31.958Z,65.20
2017-06-28T14:49:59.416Z,65.20
2017-06-28T14:52:26.887Z,65.10
2017-06-28T14:54:55.153Z,65.40
2017-06-28T14:57:22.697Z,65.10
2017-06-28T14:59:50.221Z,65.90
2017-06-28T15:02:17.725Z,64.90
2017-06-28T15:04:45.189Z,65.10
2017-06-28T15:07:13.454Z,67.50
2017-06-28T15:09:41.011Z,66.60
2017-06-28T15:12:08.473Z,66.70
2017-06-28T15:14:36.477Z,65.50
2017-06-28T15:17:03.941Z,65.50
2017-06-28T15:19:31.407Z,66.10
2017-06-28T15:21:58.883Z,66.00
2017-06-28T15:24:26.382Z,64.70
2017-06-28T15:26:54.614Z,64.40
2017-06-28T15:29:22.077Z,64.20
2017-06-28T15:31:49.544Z,65.00
2017-06-28T15:34:17.104Z,66.30
2017-06-28T15:36:44.572Z,63.90
2017-06-28T15:39:12.033Z,64.40
2017-06-28T15:41:39.502Z,65.10
2017-06-28T15:44:07.737Z,65.60
2017-06-28T15:46:35.204Z,65.50
2017-06-28T15:49:02.673Z,65.50
2017-06-28T15:51:30.217Z,64.10
2017-06-28T15:54:09.663Z,65.20
2017-06-28T15:56:47.057Z,66.60
2017-06-28T15:59:14.513Z,66.00
2017-06-28T16:01:41.981Z,66.70
2017-06-28T16:04:10.205Z,64.40
2017-06-28T16:06:37.690Z,64.30
2017-06-28T16:09:05.257Z,64.10
2017-06-28T16:11:32.704Z,65.00
2017-06-28T16:14:00.278Z,65.80
2017-06-28T16:16:27.726Z,65.80
2017-06-28T16:18:55.184Z,65.40
2017-06-28T16:21:22.653Z,65.20
2017-06-28T16:23:50.885Z,66.90
2017-06-28T16:26:18.402Z,66.80
2017-06-28T16:28:46.665Z,65.40
2017-06-28T16:31:14.883Z,67.00
2017-06-28T16:33:42.369Z,67.00
2017-06-28T16:36:09.936Z,67.50
2017-06-28T16:38:37.392Z,66.50
2017-06-28T16:41:04.943Z,65.80
2017-06-28T16:43:33.492Z,66.00
2017-06-28T16:46:01.152Z,66.80
2017-06-28T16:48:29.028Z,68.20
2017-06-28T16:50:56.685Z,68.80
2017-06-28T16:53:24.474Z,69.20
2017-06-28T16:55:51.948Z,69.90
2017-06-28T16:58:19.500Z,70.80
2017-06-28T17:00:47.052Z,71.10
2017-06-28T17:03:14.518Z,71.40
2017-06-28T17:05:42.065Z,71.20
2017-06-28T17:08:09.528Z,70.80
2017-06-28T17:10:37.084Z,70.90
2017-06-28T17:13:04.550Z,70.70
2017-06-28T17:15:32.119Z,70.50
2017-06-28T17:17:59.666Z,70.70
2017-06-28T17:20:27.138Z,70.50
2017-06-28T17:22:55.396Z,70.10
2017-06-28T17:25:22.865Z,70.00
2017-06-28T17:27:50.321Z,69.90
2017-06-28T17:30:18.556Z,69.90
2017-06-28T17:32:46.034Z,69.80
2017-06-28T17:35:13.515Z,69.60
2017-06-28T17:37:41.727Z,70.00
2017-06-28T17:40:09.231Z,69.90
2017-06-28T17:42:36.694Z,70.00
2017-06-28T17:45:04.237Z,69.90
2017-06-28T17:47:31.706Z,70.70
2017-06-28T17:49:59.261Z,70.10
2017-06-28T17:52:26.733Z,69.70
2017-06-28T17:54:54.997Z,69.60
2017-06-28T17:57:22.469Z,69.60
2017-06-28T17:59:50.716Z,69.40
2017-06-28T18:02:18.282Z,69.20
2017-06-28T18:04:45.737Z,69.70
2017-06-28T18:07:13.205Z,69.40
2017-06-28T18:09:40.682Z,68.90
2017-06-28T18:12:08.175Z,69.60
2017-06-28T18:14:35.656Z,69.60
2017-06-28T18:17:03.126Z,70.20
2017-06-28T18:19:30.671Z,70.30
2017-06-28T18:21:58.250Z,70.20
2017-06-28T18:24:26.522Z,71.30
2017-06-28T18:26:53.968Z,70.40
2017-06-28T18:29:21.539Z,70.50
2017-06-28T18:31:49.077Z,71.20
2017-06-28T18:34:16.655Z,70.90
2017-06-28T18:36:44.221Z,71.20
2017-06-28T18:39:12.463Z,72.00
2017-06-28T18:41:39.998Z,71.10
2017-06-28T18:44:07.503Z,71.30
2017-06-28T18:46:35.068Z,71.50
2017-06-28T18:49:03.324Z,71.00
2017-06-28T18:51:30.792Z,71.60
2017-06-28T18:53:58.250Z,71.90
2017-06-28T18:56:25.807Z,71.80
2017-06-28T18:58:53.251Z,72.10
2017-06-28T19:01:20.718Z,72.10
2017-06-28T19:03:48.176Z,72.40
2017-06-28T19:06:15.649Z,71.80
2017-06-28T19:08:43.991Z,72.20
2017-06-28T19:11:11.580Z,72.20
2017-06-28T19:13:39.814Z,73.60
2017-06-28T19:16:07.273Z,72.70
2017-06-28T19:18:34.756Z,72.80
2017-06-28T19:21:02.314Z,72.80
2017-06-28T19:23:29.869Z,72.90
2017-06-28T19:25:57.433Z,73.10
2017-06-28T19:28:24.975Z,73.10
2017-06-28T19:30:52.542Z,73.40
2017-06-28T19:33:20.092Z,73.50
2017-06-28T19:35:47.567Z,73.60
2017-06-28T19:38:15.117Z,73.80
2017-06-28T19:40:42.685Z,73.70
2017-06-28T19:43:10.137Z,73.90
2017-06-28T19:45:37.705Z,74.00
2017-06-28T19:48:05.965Z,75.00
2017-06-28T19:50:33.505Z,74.60
2017-06-28T19:53:00.969Z,74.40
2017-06-28T19:55:28.445Z,74.40
2017-06-28T19:57:55.914Z,74.40
2017-06-28T20:00:24.132Z,74.70
2017-06-28T20:02:51.593Z,74.60
2017-06-28T20:05:19.049Z,74.50
2017-06-28T20:07:46.495Z,74.90
2017-06-28T20:10:14.005Z,74.90
2017-06-28T20:12:41.548Z,74.90
2017-06-28T20:15:09.008Z,74.90
2017-06-28T20:17:36.560Z,74.90
2017-06-28T20:20:04.030Z,75.00
2017-06-28T20:22:31.586Z,74.90
2017-06-28T20:24:59.148Z,75.20
2017-06-28T20:27:27.412Z,76.30
2017-06-28T20:29:54.883Z,75.20
2017-06-28T20:32:22.424Z,75.20
2017-06-28T20:34:49.894Z,75.00
2017-06-28T20:37:17.462Z,75.30
2017-06-28T20:39:45.008Z,75.30
2017-06-28T20:42:12.565Z,75.60
2017-06-28T20:44:40.046Z,75.90
2017-06-28T20:47:08.286Z,75.90
2017-06-28T20:49:35.769Z,75.90
2017-06-28T20:52:04.043Z,77.10
2017-06-28T20:54:32.317Z,77.60
2017-06-28T20:57:00.572Z,76.90
2017-06-28T20:59:28.144Z,76.80
2017-06-28T21:01:55.620Z,76.80
2017-06-28T21:04:23.864Z,76.70
2017-06-28T21:06:51.433Z,76.70
2017-06-28T21:09:18.891Z,76.60
2017-06-28T21:11:46.444Z,76.60
2017-06-28T21:14:14.000Z,76.60
2017-06-28T21:16:41.556Z,76.70
2017-06-28T21:19:09.109Z,76.90
2017-06-28T21:21:36.735Z,76.80
2017-06-28T21:24:04.209Z,76.60
2017-06-28T21:26:31.788Z,76.50
2017-06-28T21:28:59.357Z,76.80
2017-06-28T21:31:26.817Z,76.80
2017-06-28T21:33:54.388Z,77.70
2017-06-28T21:36:22.642Z,77.30
2017-06-28T21:38:50.115Z,77.20
2017-06-28T21:41:18.359Z,77.40
2017-06-28T21:43:45.837Z,77.30
2017-06-28T21:46:13.398Z,77.20
2017-06-28T21:48:40.945Z,77.10
2017-06-28T21:51:08.567Z,77.30
2017-06-28T21:53:36.065Z,77.30
2017-06-28T21:56:03.626Z,77.40
2017-06-28T21:58:31.080Z,77.20
2017-06-28T22:00:58.641Z,77.20
2017-06-28T22:03:26.109Z,77.50
2017-06-28T22:05:54.377Z,77.60
2017-06-28T22:08:21.847Z,77.50
2017-06-28T22:10:50.113Z,78.80
2017-06-28T22:13:17.656Z,77.80
2017-06-28T22:15:45.216Z,78.10
2017-06-28T22:18:12.768Z,78.20
2017-06-28T22:20:40.328Z,78.20
2017-06-28T22:23:07.831Z,78.10
2017-06-28T22:25:35.362Z,77.90
2017-06-28T22:28:02.909Z,78.00
2017-06-28T22:30:30.486Z,77.50
2017-06-28T22:32:58.763Z,78.30
2017-06-28T22:35:27.034Z,78.40
2017-06-28T22:37:55.309Z,79.10
2017-06-28T22:40:22.774Z,78.20
2017-06-28T22:42:51.080Z,78.00
2017-06-28T22:45:19.297Z,78.00
2017-06-28T22:47:46.765Z,78.00
2017-06-28T22:50:14.325Z,77.90
2017-06-28T22:52:41.888Z,77.80
2017-06-28T22:55:09.450Z,77.70
2017-06-28T22:57:36.913Z,77.60
2017-06-28T23:00:05.384Z,78.00
2017-06-28T23:02:32.951Z,77.80
2017-06-28T23:05:00.524Z,78.00
2017-06-28T23:07:28.760Z,78.00
2017-06-28T23:09:56.322Z,77.80
2017-06-28T23:12:23.799Z,78.40
2017-06-28T23:14:52.023Z,79.60
2017-06-28T23:17:19.613Z,78.80
2017-06-28T23:19:47.178Z,79.00
2017-06-28T23:22:14.632Z,79.20
2017-06-28T23:24:42.111Z,79.00
2017-06-28T23:27:10.365Z,78.70
2017-06-28T23:29:37.916Z,78.60
2017-06-28T23:32:05.373Z,78.60
2017-06-28T23:34:32.937Z,78.60
2017-06-28T23:37:00.498Z,78.50
2017-06-28T23:39:28.059Z,78.50
2017-06-28T23:41:55.618Z,78.40
2017-06-28T23:44:23.084Z,78.50
2017-06-28T23:46:51.340Z,79.00
2017-06-28T23:49:18.901Z,78.10
2017-06-28T23:51:46.361Z,78.30
2017-06-28T23:54:13.843Z,78.50
2017-06-28T23:56:42.063Z,78.60
2017-06-28T23:59:09.640Z,79.40
